LGAL/AXD METAR and TAF weather

Enter ICAO airport designator
Station Type Date Time Source
LGAL METAR 2021/04/13 18:50 UTC NOAA

LGAL 131850Z 32004KT 9999 FEW025 BKN040 12/09 Q1016


Station Type Date Time Source
LGAL Decoded METAR 2021/04/13 18:50 UTC NOAA

Alexandroupoli Airport , Greece (LGAL) 40-51N 025-55E 3M
Apr 13, 2021 - 02:50 PM EDT / 2021.04.13 1850 UTC
Wind: from the NW (320 degrees) at 5 MPH (4 KT):0
Visibility: greater than 7 mile(s):0
Sky conditions: mostly cloudy
Temperature: 53 F (12 C)
Dew Point: 48 F (9 C)
Relative Humidity: 81%
Pressure (altimeter): 30.00 in. Hg (1016 hPa)
ob: LGAL 131850Z 32004KT 9999 FEW025 BKN040 12/09 Q1016
cycle: 19

Station Type Date Time Source
LGAL TAF 2012/09/21 03:06 UTC NOAA

TAF TAF LGAL 210200Z 2103/2115 03012G22KT 9999 FEW020 SCT070 PROB30
TEMPO 2103/2106 6000 RA SCT015 BKN030 PROB30

Example: see airport list